sensor_id;sensor_type;location;lat;lon;timestamp;P1;durP1;ratioP1;P2;durP2;ratioP2
36443;SDS011;24692;45.642;13.806;2022-10-16T00:01:04;41.37;;;28.67;;
36443;SDS011;24692;45.642;13.806;2022-10-16T00:03:31;41.43;;;27.63;;
36443;SDS011;24692;45.642;13.806;2022-10-16T00:05:58;42.60;;;28.77;;
36443;SDS011;24692;45.642;13.806;2022-10-16T00:08:25;38.50;;;27.73;;
36443;SDS011;24692;45.642;13.806;2022-10-16T00:10:51;42.67;;;28.07;;
36443;SDS011;24692;45.642;13.806;2022-10-16T00:13:17;39.70;;;27.83;;
36443;SDS011;24692;45.642;13.806;2022-10-16T00:15:44;41.07;;;28.07;;
36443;SDS011;24692;45.642;13.806;2022-10-16T00:18:11;42.33;;;27.97;;
36443;SDS011;24692;45.642;13.806;2022-10-16T00:20:37;41.80;;;29.13;;
36443;SDS011;24692;45.642;13.806;2022-10-16T00:23:03;38.87;;;27.50;;
36443;SDS011;24692;45.642;13.806;2022-10-16T00:25:30;40.00;;;27.57;;
36443;SDS011;24692;45.642;13.806;2022-10-16T00:27:57;41.13;;;27.63;;
36443;SDS011;24692;45.642;13.806;2022-10-16T00:30:24;38.40;;;25.93;;
36443;SDS011;24692;45.642;13.806;2022-10-16T00:32:51;41.97;;;28.97;;
36443;SDS011;24692;45.642;13.806;2022-10-16T00:35:17;39.10;;;28.00;;
36443;SDS011;24692;45.642;13.806;2022-10-16T00:37:43;42.17;;;28.93;;
36443;SDS011;24692;45.642;13.806;2022-10-16T00:40:09;41.83;;;27.20;;
36443;SDS011;24692;45.642;13.806;2022-10-16T00:42:35;40.40;;;28.60;;
36443;SDS011;24692;45.642;13.806;2022-10-16T00:45:01;39.03;;;26.83;;
36443;SDS011;24692;45.642;13.806;2022-10-16T00:47:31;40.07;;;28.33;;
36443;SDS011;24692;45.642;13.806;2022-10-16T00:50:09;44.23;;;27.90;;
36443;SDS011;24692;45.642;13.806;2022-10-16T00:53:08;44.40;;;28.47;;
36443;SDS011;24692;45.642;13.806;2022-10-16T00:55:36;42.63;;;28.80;;
36443;SDS011;24692;45.642;13.806;2022-10-16T00:58:01;41.97;;;27.67;;
36443;SDS011;24692;45.642;13.806;2022-10-16T01:00:27;45.03;;;28.60;;
36443;SDS011;24692;45.642;13.806;2022-10-16T01:02:57;40.73;;;28.03;;
36443;SDS011;24692;45.642;13.806;2022-10-16T01:05:26;43.60;;;29.70;;
36443;SDS011;24692;45.642;13.806;2022-10-16T01:08:13;45.53;;;28.67;;
36443;SDS011;24692;45.642;13.806;2022-10-16T01:11:27;42.37;;;27.30;;
36443;SDS011;24692;45.642;13.806;2022-10-16T01:13:53;40.07;;;28.63;;
36443;SDS011;24692;45.642;13.806;2022-10-16T01:16:34;41.67;;;27.67;;
36443;SDS011;24692;45.642;13.806;2022-10-16T01:19:09;38.43;;;27.70;;
36443;SDS011;24692;45.642;13.806;2022-10-16T01:21:44;44.13;;;29.13;;
36443;SDS011;24692;45.642;13.806;2022-10-16T01:24:33;43.27;;;28.77;;
36443;SDS011;24692;45.642;13.806;2022-10-16T01:27:11;42.90;;;28.87;;
36443;SDS011;24692;45.642;13.806;2022-10-16T01:32:40;41.73;;;28.90;;
36443;SDS011;24692;45.642;13.806;2022-10-16T01:40:33;44.27;;;29.30;;
36443;SDS011;24692;45.642;13.806;2022-10-16T01:43:12;42.60;;;29.40;;
36443;SDS011;24692;45.642;13.806;2022-10-16T01:45:44;46.53;;;30.23;;
36443;SDS011;24692;45.642;13.806;2022-10-16T01:48:15;49.57;;;31.20;;
36443;SDS011;24692;45.642;13.806;2022-10-16T01:50:48;44.90;;;29.40;;
36443;SDS011;24692;45.642;13.806;2022-10-16T01:53:25;44.53;;;30.97;;
36443;SDS011;24692;45.642;13.806;2022-10-16T01:55:52;44.13;;;30.30;;
36443;SDS011;24692;45.642;13.806;2022-10-16T01:58:20;43.53;;;29.23;;
36443;SDS011;24692;45.642;13.806;2022-10-16T02:00:48;53.03;;;32.20;;
36443;SDS011;24692;45.642;13.806;2022-10-16T02:03:16;45.90;;;31.37;;
36443;SDS011;24692;45.642;13.806;2022-10-16T02:05:51;44.27;;;31.03;;
36443;SDS011;24692;45.642;13.806;2022-10-16T02:08:20;48.93;;;32.50;;
36443;SDS011;24692;45.642;13.806;2022-10-16T02:10:49;49.33;;;32.40;;
36443;SDS011;24692;45.642;13.806;2022-10-16T02:13:34;44.53;;;30.13;;
36443;SDS011;24692;45.642;13.806;2022-10-16T02:16:01;43.47;;;30.20;;
36443;SDS011;24692;45.642;13.806;2022-10-16T02:18:27;47.50;;;32.10;;
36443;SDS011;24692;45.642;13.806;2022-10-16T02:21:16;51.90;;;31.50;;
36443;SDS011;24692;45.642;13.806;2022-10-16T02:26:49;49.73;;;32.97;;
36443;SDS011;24692;45.642;13.806;2022-10-16T02:29:35;48.67;;;31.00;;
36443;SDS011;24692;45.642;13.806;2022-10-16T02:32:05;48.07;;;32.00;;
36443;SDS011;24692;45.642;13.806;2022-10-16T02:34:35;49.93;;;32.77;;
36443;SDS011;24692;45.642;13.806;2022-10-16T02:37:03;48.20;;;32.27;;
36443;SDS011;24692;45.642;13.806;2022-10-16T02:39:30;49.80;;;33.67;;
36443;SDS011;24692;45.642;13.806;2022-10-16T02:41:56;48.50;;;31.60;;
36443;SDS011;24692;45.642;13.806;2022-10-16T02:44:22;50.67;;;32.63;;
36443;SDS011;24692;45.642;13.806;2022-10-16T02:46:47;49.97;;;33.17;;
36443;SDS011;24692;45.642;13.806;2022-10-16T02:49:13;47.93;;;31.90;;
36443;SDS011;24692;45.642;13.806;2022-10-16T02:51:39;45.97;;;31.40;;
36443;SDS011;24692;45.642;13.806;2022-10-16T02:54:04;50.07;;;32.63;;
36443;SDS011;24692;45.642;13.806;2022-10-16T02:56:30;45.60;;;32.13;;
36443;SDS011;24692;45.642;13.806;2022-10-16T02:58:56;48.07;;;32.90;;
36443;SDS011;24692;45.642;13.806;2022-10-16T03:01:22;44.80;;;31.17;;
36443;SDS011;24692;45.642;13.806;2022-10-16T03:03:48;47.83;;;32.10;;
36443;SDS011;24692;45.642;13.806;2022-10-16T03:06:14;49.27;;;31.90;;
36443;SDS011;24692;45.642;13.806;2022-10-16T03:08:40;46.07;;;32.20;;
36443;SDS011;24692;45.642;13.806;2022-10-16T03:11:06;51.07;;;31.60;;
36443;SDS011;24692;45.642;13.806;2022-10-16T03:13:31;46.70;;;30.60;;
36443;SDS011;24692;45.642;13.806;2022-10-16T03:15:57;47.27;;;31.93;;
36443;SDS011;24692;45.642;13.806;2022-10-16T03:18:22;50.17;;;32.10;;
36443;SDS011;24692;45.642;13.806;2022-10-16T03:20:48;46.60;;;31.57;;
36443;SDS011;24692;45.642;13.806;2022-10-16T03:23:14;45.60;;;31.80;;
36443;SDS011;24692;45.642;13.806;2022-10-16T03:25:39;46.97;;;31.53;;
36443;SDS011;24692;45.642;13.806;2022-10-16T03:28:05;47.07;;;31.40;;
36443;SDS011;24692;45.642;13.806;2022-10-16T03:30:31;47.13;;;31.17;;
36443;SDS011;24692;45.642;13.806;2022-10-16T03:32:56;47.37;;;31.90;;
36443;SDS011;24692;45.642;13.806;2022-10-16T03:35:22;47.17;;;32.50;;
36443;SDS011;24692;45.642;13.806;2022-10-16T03:37:49;48.83;;;33.97;;
36443;SDS011;24692;45.642;13.806;2022-10-16T03:40:15;49.13;;;31.83;;
36443;SDS011;24692;45.642;13.806;2022-10-16T03:42:42;46.37;;;32.63;;
36443;SDS011;24692;45.642;13.806;2022-10-16T03:45:08;50.40;;;31.33;;
36443;SDS011;24692;45.642;13.806;2022-10-16T03:47:35;49.03;;;32.27;;
36443;SDS011;24692;45.642;13.806;2022-10-16T03:50:00;48.07;;;32.13;;
36443;SDS011;24692;45.642;13.806;2022-10-16T03:52:27;49.47;;;32.97;;
36443;SDS011;24692;45.642;13.806;2022-10-16T03:54:52;49.47;;;33.40;;
36443;SDS011;24692;45.642;13.806;2022-10-16T03:57:18;49.00;;;33.07;;
36443;SDS011;24692;45.642;13.806;2022-10-16T03:59:45;49.50;;;32.93;;
36443;SDS011;24692;45.642;13.806;2022-10-16T04:02:11;51.20;;;33.83;;
36443;SDS011;24692;45.642;13.806;2022-10-16T04:04:36;54.00;;;35.53;;
36443;SDS011;24692;45.642;13.806;2022-10-16T04:07:02;51.47;;;34.47;;
36443;SDS011;24692;45.642;13.806;2022-10-16T04:09:28;51.97;;;34.13;;
36443;SDS011;24692;45.642;13.806;2022-10-16T04:11:53;49.40;;;35.20;;
36443;SDS011;24692;45.642;13.806;2022-10-16T04:14:19;50.60;;;35.00;;
36443;SDS011;24692;45.642;13.806;2022-10-16T04:16:45;52.50;;;35.33;;
36443;SDS011;24692;45.642;13.806;2022-10-16T04:19:10;54.37;;;35.43;;
36443;SDS011;24692;45.642;13.806;2022-10-16T04:21:36;59.37;;;37.20;;
36443;SDS011;24692;45.642;13.806;2022-10-16T04:24:02;52.43;;;35.17;;
36443;SDS011;24692;45.642;13.806;2022-10-16T04:26:28;55.33;;;36.73;;
36443;SDS011;24692;45.642;13.806;2022-10-16T04:28:54;54.83;;;35.77;;
36443;SDS011;24692;45.642;13.806;2022-10-16T04:31:19;58.10;;;36.67;;
36443;SDS011;24692;45.642;13.806;2022-10-16T04:33:45;59.47;;;36.47;;
36443;SDS011;24692;45.642;13.806;2022-10-16T04:36:11;55.63;;;37.13;;
36443;SDS011;24692;45.642;13.806;2022-10-16T04:38:37;60.27;;;38.77;;
36443;SDS011;24692;45.642;13.806;2022-10-16T04:41:04;62.07;;;39.20;;
36443;SDS011;24692;45.642;13.806;2022-10-16T04:43:31;57.57;;;38.00;;
36443;SDS011;24692;45.642;13.806;2022-10-16T04:45:56;60.63;;;37.90;;
36443;SDS011;24692;45.642;13.806;2022-10-16T04:48:22;64.90;;;38.80;;
36443;SDS011;24692;45.642;13.806;2022-10-16T04:50:48;62.40;;;38.60;;
36443;SDS011;24692;45.642;13.806;2022-10-16T04:53:13;60.27;;;37.83;;
36443;SDS011;24692;45.642;13.806;2022-10-16T04:55:39;65.20;;;39.50;;
36443;SDS011;24692;45.642;13.806;2022-10-16T04:58:06;66.90;;;38.93;;
36443;SDS011;24692;45.642;13.806;2022-10-16T05:00:33;65.03;;;40.20;;
36443;SDS011;24692;45.642;13.806;2022-10-16T05:02:59;60.33;;;37.53;;
36443;SDS011;24692;45.642;13.806;2022-10-16T05:05:26;64.30;;;39.47;;
36443;SDS011;24692;45.642;13.806;2022-10-16T05:07:52;64.57;;;39.93;;
36443;SDS011;24692;45.642;13.806;2022-10-16T05:10:18;68.97;;;40.80;;
36443;SDS011;24692;45.642;13.806;2022-10-16T05:12:44;66.53;;;40.73;;
36443;SDS011;24692;45.642;13.806;2022-10-16T05:15:10;61.30;;;37.63;;
36443;SDS011;24692;45.642;13.806;2022-10-16T05:17:36;63.20;;;38.20;;
36443;SDS011;24692;45.642;13.806;2022-10-16T05:20:02;65.93;;;40.90;;
36443;SDS011;24692;45.642;13.806;2022-10-16T05:22:28;64.17;;;39.67;;
36443;SDS011;24692;45.642;13.806;2022-10-16T05:24:54;61.40;;;39.43;;
36443;SDS011;24692;45.642;13.806;2022-10-16T05:27:20;63.33;;;38.23;;
36443;SDS011;24692;45.642;13.806;2022-10-16T05:29:46;62.63;;;38.87;;
36443;SDS011;24692;45.642;13.806;2022-10-16T05:32:13;61.07;;;38.17;;
36443;SDS011;24692;45.642;13.806;2022-10-16T05:34:43;60.53;;;36.77;;
36443;SDS011;24692;45.642;13.806;2022-10-16T05:37:08;54.33;;;36.67;;
36443;SDS011;24692;45.642;13.806;2022-10-16T05:39:34;60.90;;;38.70;;
36443;SDS011;24692;45.642;13.806;2022-10-16T05:42:01;58.67;;;35.83;;
36443;SDS011;24692;45.642;13.806;2022-10-16T05:44:27;52.23;;;34.90;;
36443;SDS011;24692;45.642;13.806;2022-10-16T05:46:53;55.07;;;35.30;;
36443;SDS011;24692;45.642;13.806;2022-10-16T05:49:18;56.47;;;36.10;;
36443;SDS011;24692;45.642;13.806;2022-10-16T05:51:44;56.53;;;36.47;;
36443;SDS011;24692;45.642;13.806;2022-10-16T05:54:10;60.90;;;36.53;;
36443;SDS011;24692;45.642;13.806;2022-10-16T05:56:35;56.43;;;35.90;;
36443;SDS011;24692;45.642;13.806;2022-10-16T05:59:02;52.87;;;35.97;;
36443;SDS011;24692;45.642;13.806;2022-10-16T06:01:29;55.87;;;36.37;;
36443;SDS011;24692;45.642;13.806;2022-10-16T06:03:56;57.77;;;35.57;;
36443;SDS011;24692;45.642;13.806;2022-10-16T06:06:22;55.27;;;36.83;;
36443;SDS011;24692;45.642;13.806;2022-10-16T06:08:51;57.37;;;37.47;;
36443;SDS011;24692;45.642;13.806;2022-10-16T06:11:18;55.37;;;36.40;;
36443;SDS011;24692;45.642;13.806;2022-10-16T06:13:49;54.30;;;35.57;;
36443;SDS011;24692;45.642;13.806;2022-10-16T06:16:15;55.07;;;37.00;;
36443;SDS011;24692;45.642;13.806;2022-10-16T06:18:41;55.97;;;36.40;;
36443;SDS011;24692;45.642;13.806;2022-10-16T06:21:11;54.87;;;35.43;;
36443;SDS011;24692;45.642;13.806;2022-10-16T06:23:47;57.47;;;37.40;;
36443;SDS011;24692;45.642;13.806;2022-10-16T06:26:15;55.13;;;36.53;;
36443;SDS011;24692;45.642;13.806;2022-10-16T06:28:42;55.23;;;36.83;;
36443;SDS011;24692;45.642;13.806;2022-10-16T06:31:08;55.10;;;36.40;;
36443;SDS011;24692;45.642;13.806;2022-10-16T06:33:36;50.20;;;34.73;;
36443;SDS011;24692;45.642;13.806;2022-10-16T06:36:06;57.43;;;35.70;;
36443;SDS011;24692;45.642;13.806;2022-10-16T06:38:37;51.07;;;35.50;;
36443;SDS011;24692;45.642;13.806;2022-10-16T06:41:03;49.73;;;33.87;;
36443;SDS011;24692;45.642;13.806;2022-10-16T06:43:30;49.33;;;34.07;;
36443;SDS011;24692;45.642;13.806;2022-10-16T06:46:02;49.67;;;35.93;;
36443;SDS011;24692;45.642;13.806;2022-10-16T06:48:28;48.83;;;34.73;;
36443;SDS011;24692;45.642;13.806;2022-10-16T06:50:55;49.80;;;34.50;;
36443;SDS011;24692;45.642;13.806;2022-10-16T06:53:25;51.37;;;35.57;;
36443;SDS011;24692;45.642;13.806;2022-10-16T06:55:52;50.10;;;34.43;;
36443;SDS011;24692;45.642;13.806;2022-10-16T06:58:18;50.93;;;35.53;;
36443;SDS011;24692;45.642;13.806;2022-10-16T07:00:44;48.27;;;34.10;;
36443;SDS011;24692;45.642;13.806;2022-10-16T07:03:10;49.13;;;33.80;;
36443;SDS011;24692;45.642;13.806;2022-10-16T07:05:38;49.07;;;33.37;;
36443;SDS011;24692;45.642;13.806;2022-10-16T07:08:05;46.27;;;33.27;;
36443;SDS011;24692;45.642;13.806;2022-10-16T07:10:32;47.07;;;33.50;;
36443;SDS011;24692;45.642;13.806;2022-10-16T07:12:58;47.83;;;32.23;;
36443;SDS011;24692;45.642;13.806;2022-10-16T07:15:24;52.93;;;34.27;;
36443;SDS011;24692;45.642;13.806;2022-10-16T07:17:51;49.53;;;34.60;;
36443;SDS011;24692;45.642;13.806;2022-10-16T07:20:16;47.47;;;33.63;;
36443;SDS011;24692;45.642;13.806;2022-10-16T07:22:42;47.37;;;33.83;;
36443;SDS011;24692;45.642;13.806;2022-10-16T07:25:08;44.50;;;33.43;;
36443;SDS011;24692;45.642;13.806;2022-10-16T07:27:33;46.67;;;32.93;;
36443;SDS011;24692;45.642;13.806;2022-10-16T07:29:59;48.30;;;34.07;;
36443;SDS011;24692;45.642;13.806;2022-10-16T07:32:25;45.30;;;33.37;;
36443;SDS011;24692;45.642;13.806;2022-10-16T07:34:51;47.27;;;34.50;;
36443;SDS011;24692;45.642;13.806;2022-10-16T07:37:18;43.90;;;32.13;;
36443;SDS011;24692;45.642;13.806;2022-10-16T07:39:44;46.47;;;31.73;;
36443;SDS011;24692;45.642;13.806;2022-10-16T07:42:09;45.47;;;32.90;;
36443;SDS011;24692;45.642;13.806;2022-10-16T07:44:35;40.70;;;31.57;;
36443;SDS011;24692;45.642;13.806;2022-10-16T07:47:01;43.13;;;31.55;;
36443;SDS011;24692;45.642;13.806;2022-10-16T07:49:27;40.72;;;30.95;;
36443;SDS011;24692;45.642;13.806;2022-10-16T07:51:53;38.70;;;30.63;;
36443;SDS011;24692;45.642;13.806;2022-10-16T07:54:19;41.47;;;32.47;;
36443;SDS011;24692;45.642;13.806;2022-10-16T07:56:44;41.58;;;31.65;;
36443;SDS011;24692;45.642;13.806;2022-10-16T07:59:10;38.35;;;30.45;;
36443;SDS011;24692;45.642;13.806;2022-10-16T08:01:36;41.00;;;30.33;;
36443;SDS011;24692;45.642;13.806;2022-10-16T08:04:01;38.20;;;30.65;;
36443;SDS011;24692;45.642;13.806;2022-10-16T08:06:27;43.60;;;31.85;;
36443;SDS011;24692;45.642;13.806;2022-10-16T08:08:53;41.15;;;32.00;;
36443;SDS011;24692;45.642;13.806;2022-10-16T08:11:19;40.28;;;30.75;;
36443;SDS011;24692;45.642;13.806;2022-10-16T08:13:44;40.35;;;31.83;;
36443;SDS011;24692;45.642;13.806;2022-10-16T08:16:10;39.30;;;31.88;;
36443;SDS011;24692;45.642;13.806;2022-10-16T08:18:39;75.15;;;66.53;;
36443;SDS011;24692;45.642;13.806;2022-10-16T08:21:06;50.22;;;42.85;;
36443;SDS011;24692;45.642;13.806;2022-10-16T08:23:33;38.40;;;31.70;;
36443;SDS011;24692;45.642;13.806;2022-10-16T08:26:04;40.17;;;32.42;;
36443;SDS011;24692;45.642;13.806;2022-10-16T08:28:31;37.03;;;31.50;;
36443;SDS011;24692;45.642;13.806;2022-10-16T08:31:04;36.05;;;31.13;;
36443;SDS011;24692;45.642;13.806;2022-10-16T08:33:33;36.50;;;30.67;;
36443;SDS011;24692;45.642;13.806;2022-10-16T08:36:00;40.17;;;31.05;;
36443;SDS011;24692;45.642;13.806;2022-10-16T08:38:27;36.42;;;30.65;;
36443;SDS011;24692;45.642;13.806;2022-10-16T08:40:52;40.80;;;30.80;;
36443;SDS011;24692;45.642;13.806;2022-10-16T08:43:30;34.83;;;30.33;;
36443;SDS011;24692;45.642;13.806;2022-10-16T08:46:31;39.60;;;32.80;;
36443;SDS011;24692;45.642;13.806;2022-10-16T08:49:08;42.22;;;32.20;;
36443;SDS011;24692;45.642;13.806;2022-10-16T08:51:38;38.05;;;32.80;;
36443;SDS011;24692;45.642;13.806;2022-10-16T08:54:28;42.53;;;31.65;;
36443;SDS011;24692;45.642;13.806;2022-10-16T08:56:56;34.22;;;30.52;;
36443;SDS011;24692;45.642;13.806;2022-10-16T08:59:29;38.53;;;29.90;;
36443;SDS011;24692;45.642;13.806;2022-10-16T09:01:55;35.65;;;29.17;;
36443;SDS011;24692;45.642;13.806;2022-10-16T09:13:01;36.45;;;31.65;;
36443;SDS011;24692;45.642;13.806;2022-10-16T09:15:43;39.33;;;31.45;;
36443;SDS011;24692;45.642;13.806;2022-10-16T09:23:30;41.83;;;33.72;;
36443;SDS011;24692;45.642;13.806;2022-10-16T09:26:00;44.45;;;35.05;;
36443;SDS011;24692;45.642;13.806;2022-10-16T09:28:27;50.70;;;36.97;;
36443;SDS011;24692;45.642;13.806;2022-10-16T09:30:53;51.35;;;38.97;;
36443;SDS011;24692;45.642;13.806;2022-10-16T09:33:20;51.30;;;37.83;;
36443;SDS011;24692;45.642;13.806;2022-10-16T09:35:53;49.60;;;37.35;;
36443;SDS011;24692;45.642;13.806;2022-10-16T09:38:39;49.60;;;38.33;;
36443;SDS011;24692;45.642;13.806;2022-10-16T09:41:38;55.70;;;39.05;;
36443;SDS011;24692;45.642;13.806;2022-10-16T09:43:59;54.72;;;38.90;;
36443;SDS011;24692;45.642;13.806;2022-10-16T09:48:56;52.95;;;36.45;;
36443;SDS011;24692;45.642;13.806;2022-10-16T09:53:56;52.92;;;38.00;;
36443;SDS011;24692;45.642;13.806;2022-10-16T09:56:26;45.85;;;36.08;;
36443;SDS011;24692;45.642;13.806;2022-10-16T09:58:55;52.15;;;38.35;;
36443;SDS011;24692;45.642;13.806;2022-10-16T10:01:24;49.58;;;36.13;;
36443;SDS011;24692;45.642;13.806;2022-10-16T10:04:03;47.33;;;36.70;;
36443;SDS011;24692;45.642;13.806;2022-10-16T10:06:30;50.28;;;36.92;;
36443;SDS011;24692;45.642;13.806;2022-10-16T10:11:52;43.67;;;32.67;;
36443;SDS011;24692;45.642;13.806;2022-10-16T10:14:38;42.40;;;32.55;;
36443;SDS011;24692;45.642;13.806;2022-10-16T10:17:10;40.83;;;33.75;;
36443;SDS011;24692;45.642;13.806;2022-10-16T10:19:42;38.88;;;32.75;;
36443;SDS011;24692;45.642;13.806;2022-10-16T10:25:07;39.30;;;33.50;;
36443;SDS011;24692;45.642;13.806;2022-10-16T10:46:36;52.80;;;37.83;;
36443;SDS011;24692;45.642;13.806;2022-10-16T10:54:47;48.20;;;36.45;;
36443;SDS011;24692;45.642;13.806;2022-10-16T10:57:28;48.65;;;36.92;;
36443;SDS011;24692;45.642;13.806;2022-10-16T11:10:47;51.20;;;39.20;;
36443;SDS011;24692;45.642;13.806;2022-10-16T11:13:32;51.55;;;38.47;;
36443;SDS011;24692;45.642;13.806;2022-10-16T11:21:49;46.90;;;36.17;;
36443;SDS011;24692;45.642;13.806;2022-10-16T11:24:22;48.28;;;35.58;;
36443;SDS011;24692;45.642;13.806;2022-10-16T11:26:55;42.33;;;33.92;;
36443;SDS011;24692;45.642;13.806;2022-10-16T11:29:26;44.25;;;33.95;;
36443;SDS011;24692;45.642;13.806;2022-10-16T11:32:06;46.10;;;35.53;;
36443;SDS011;24692;45.642;13.806;2022-10-16T11:34:48;45.65;;;34.78;;
36443;SDS011;24692;45.642;13.806;2022-10-16T11:37:19;42.28;;;34.13;;
36443;SDS011;24692;45.642;13.806;2022-10-16T11:40:16;47.13;;;35.55;;
36443;SDS011;24692;45.642;13.806;2022-10-16T11:45:45;47.90;;;35.05;;
36443;SDS011;24692;45.642;13.806;2022-10-16T11:50:45;45.80;;;34.65;;
36443;SDS011;24692;45.642;13.806;2022-10-16T11:56:15;42.60;;;34.47;;
36443;SDS011;24692;45.642;13.806;2022-10-16T12:09:01;50.20;;;35.30;;
36443;SDS011;24692;45.642;13.806;2022-10-16T12:16:38;45.35;;;35.50;;
36443;SDS011;24692;45.642;13.806;2022-10-16T12:19:16;45.00;;;36.13;;
36443;SDS011;24692;45.642;13.806;2022-10-16T12:21:43;49.10;;;35.53;;
36443;SDS011;24692;45.642;13.806;2022-10-16T12:27:30;47.17;;;34.90;;
36443;SDS011;24692;45.642;13.806;2022-10-16T12:29:58;45.33;;;33.33;;
36443;SDS011;24692;45.642;13.806;2022-10-16T12:35:04;49.92;;;37.67;;
36443;SDS011;24692;45.642;13.806;2022-10-16T12:37:42;47.20;;;34.20;;
36443;SDS011;24692;45.642;13.806;2022-10-16T12:40:13;49.47;;;36.90;;
36443;SDS011;24692;45.642;13.806;2022-10-16T12:42:41;46.47;;;35.60;;
36443;SDS011;24692;45.642;13.806;2022-10-16T12:45:24;44.22;;;34.40;;
36443;SDS011;24692;45.642;13.806;2022-10-16T12:47:53;45.92;;;34.65;;
36443;SDS011;24692;45.642;13.806;2022-10-16T12:50:36;42.85;;;34.28;;
36443;SDS011;24692;45.642;13.806;2022-10-16T12:53:04;47.80;;;35.88;;
36443;SDS011;24692;45.642;13.806;2022-10-16T12:55:47;43.67;;;34.42;;
36443;SDS011;24692;45.642;13.806;2022-10-16T13:10:15;47.97;;;36.08;;
36443;SDS011;24692;45.642;13.806;2022-10-16T13:13:05;49.45;;;36.80;;
36443;SDS011;24692;45.642;13.806;2022-10-16T13:19:10;47.35;;;36.08;;
36443;SDS011;24692;45.642;13.806;2022-10-16T13:25:04;49.22;;;35.88;;
36443;SDS011;24692;45.642;13.806;2022-10-16T13:28:00;47.13;;;34.75;;
36443;SDS011;24692;45.642;13.806;2022-10-16T13:30:31;45.67;;;34.25;;
36443;SDS011;24692;45.642;13.806;2022-10-16T13:33:27;49.42;;;34.92;;
36443;SDS011;24692;45.642;13.806;2022-10-16T13:36:00;47.00;;;35.85;;
36443;SDS011;24692;45.642;13.806;2022-10-16T13:38:30;45.78;;;35.67;;
36443;SDS011;24692;45.642;13.806;2022-10-16T13:41:04;46.13;;;35.15;;
36443;SDS011;24692;45.642;13.806;2022-10-16T13:43:41;45.67;;;34.83;;
36443;SDS011;24692;45.642;13.806;2022-10-16T13:46:15;45.30;;;34.10;;
36443;SDS011;24692;45.642;13.806;2022-10-16T13:48:43;45.97;;;34.78;;
36443;SDS011;24692;45.642;13.806;2022-10-16T13:51:13;49.17;;;35.40;;
36443;SDS011;24692;45.642;13.806;2022-10-16T13:53:42;47.92;;;34.85;;
36443;SDS011;24692;45.642;13.806;2022-10-16T13:56:13;47.75;;;35.53;;
36443;SDS011;24692;45.642;13.806;2022-10-16T13:58:41;47.38;;;34.97;;
36443;SDS011;24692;45.642;13.806;2022-10-16T14:01:20;48.38;;;34.58;;
36443;SDS011;24692;45.642;13.806;2022-10-16T14:03:50;50.15;;;36.38;;
36443;SDS011;24692;45.642;13.806;2022-10-16T14:06:20;49.78;;;35.53;;
36443;SDS011;24692;45.642;13.806;2022-10-16T14:08:50;49.25;;;35.40;;
36443;SDS011;24692;45.642;13.806;2022-10-16T14:11:23;48.53;;;37.35;;
36443;SDS011;24692;45.642;13.806;2022-10-16T14:13:50;52.05;;;37.72;;
36443;SDS011;24692;45.642;13.806;2022-10-16T14:16:20;50.88;;;36.45;;
36443;SDS011;24692;45.642;13.806;2022-10-16T14:18:58;51.47;;;36.42;;
36443;SDS011;24692;45.642;13.806;2022-10-16T14:21:26;46.03;;;35.10;;
36443;SDS011;24692;45.642;13.806;2022-10-16T14:23:53;52.92;;;37.13;;
36443;SDS011;24692;45.642;13.806;2022-10-16T14:26:20;49.55;;;36.65;;
36443;SDS011;24692;45.642;13.806;2022-10-16T14:29:12;49.03;;;36.85;;
36443;SDS011;24692;45.642;13.806;2022-10-16T14:31:39;55.88;;;40.17;;
36443;SDS011;24692;45.642;13.806;2022-10-16T14:34:22;52.30;;;36.38;;
36443;SDS011;24692;45.642;13.806;2022-10-16T14:36:55;52.15;;;37.25;;
36443;SDS011;24692;45.642;13.806;2022-10-16T14:39:23;46.70;;;34.20;;
36443;SDS011;24692;45.642;13.806;2022-10-16T14:41:51;50.05;;;35.85;;
36443;SDS011;24692;45.642;13.806;2022-10-16T14:44:20;53.78;;;37.75;;
36443;SDS011;24692;45.642;13.806;2022-10-16T14:46:52;50.70;;;36.67;;
36443;SDS011;24692;45.642;13.806;2022-10-16T14:49:18;51.72;;;37.28;;
36443;SDS011;24692;45.642;13.806;2022-10-16T14:51:45;53.88;;;38.42;;
36443;SDS011;24692;45.642;13.806;2022-10-16T14:54:12;54.80;;;39.75;;
36443;SDS011;24692;45.642;13.806;2022-10-16T14:59:37;54.90;;;37.30;;
36443;SDS011;24692;45.642;13.806;2022-10-16T15:04:43;52.40;;;35.25;;
36443;SDS011;24692;45.642;13.806;2022-10-16T15:07:09;57.13;;;39.58;;
36443;SDS011;24692;45.642;13.806;2022-10-16T15:09:34;59.13;;;39.25;;
36443;SDS011;24692;45.642;13.806;2022-10-16T15:12:00;55.60;;;36.88;;
36443;SDS011;24692;45.642;13.806;2022-10-16T15:14:26;59.63;;;40.22;;
36443;SDS011;24692;45.642;13.806;2022-10-16T15:16:51;56.85;;;39.08;;
36443;SDS011;24692;45.642;13.806;2022-10-16T15:19:17;55.08;;;39.53;;
36443;SDS011;24692;45.642;13.806;2022-10-16T15:21:42;61.75;;;40.83;;
36443;SDS011;24692;45.642;13.806;2022-10-16T15:24:09;58.97;;;40.55;;
36443;SDS011;24692;45.642;13.806;2022-10-16T15:26:38;60.13;;;41.42;;
36443;SDS011;24692;45.642;13.806;2022-10-16T15:29:04;58.37;;;39.80;;
36443;SDS011;24692;45.642;13.806;2022-10-16T15:31:30;59.23;;;40.20;;
36443;SDS011;24692;45.642;13.806;2022-10-16T15:33:55;64.43;;;42.70;;
36443;SDS011;24692;45.642;13.806;2022-10-16T15:36:30;64.93;;;41.03;;
36443;SDS011;24692;45.642;13.806;2022-10-16T15:39:15;65.03;;;41.03;;
36443;SDS011;24692;45.642;13.806;2022-10-16T15:41:43;66.40;;;42.53;;
36443;SDS011;24692;45.642;13.806;2022-10-16T15:44:15;61.00;;;40.25;;
36443;SDS011;24692;45.642;13.806;2022-10-16T15:46:41;57.08;;;37.15;;
36443;SDS011;24692;45.642;13.806;2022-10-16T15:49:07;57.78;;;37.20;;
36443;SDS011;24692;45.642;13.806;2022-10-16T15:51:34;47.05;;;34.13;;
36443;SDS011;24692;45.642;13.806;2022-10-16T15:54:03;56.57;;;35.83;;
36443;SDS011;24692;45.642;13.806;2022-10-16T15:56:29;53.27;;;35.90;;
36443;SDS011;24692;45.642;13.806;2022-10-16T15:58:58;55.67;;;35.80;;
36443;SDS011;24692;45.642;13.806;2022-10-16T16:01:24;51.73;;;36.70;;
36443;SDS011;24692;45.642;13.806;2022-10-16T16:03:53;52.33;;;37.00;;
36443;SDS011;24692;45.642;13.806;2022-10-16T16:06:19;54.30;;;36.83;;
36443;SDS011;24692;45.642;13.806;2022-10-16T16:08:45;49.70;;;34.63;;
36443;SDS011;24692;45.642;13.806;2022-10-16T16:11:12;54.07;;;37.83;;
36443;SDS011;24692;45.642;13.806;2022-10-16T16:13:38;52.93;;;35.63;;
36443;SDS011;24692;45.642;13.806;2022-10-16T16:16:07;56.00;;;37.33;;
36443;SDS011;24692;45.642;13.806;2022-10-16T16:18:37;58.27;;;37.83;;
36443;SDS011;24692;45.642;13.806;2022-10-16T16:21:03;57.77;;;37.23;;
36443;SDS011;24692;45.642;13.806;2022-10-16T16:23:29;56.07;;;37.03;;
36443;SDS011;24692;45.642;13.806;2022-10-16T16:26:14;51.97;;;36.43;;
36443;SDS011;24692;45.642;13.806;2022-10-16T16:28:50;53.10;;;37.00;;
36443;SDS011;24692;45.642;13.806;2022-10-16T16:31:17;54.57;;;36.83;;
36443;SDS011;24692;45.642;13.806;2022-10-16T16:33:42;55.97;;;38.17;;